Time;durP1;ratioP1;P1;durP2;ratioP2;P2;SDS_P1;SDS_P2;PMS_P1;PMS_P2;Temp;Humidity;BMP_temperature;BMP_pressure;BME280_temperature;BME280_humidity;BME280_pressure;Samples;Min_cycle;Max_cycle;Signal;HPM_P1;HPM_P2
2021/06/21 00:01:24;;;;;;;9.85;3.72;;;23.20;73.50;;;;;;5002913;28;20026;-59
2021/06/21 00:03:49;;;;;;;14.80;4.93;;;23.20;73.60;;;;;;5002065;28;20482;-60
2021/06/21 00:06:15;;;;;;;14.80;5.20;;;23.20;73.60;;;;;;5002430;28;20045;-61
2021/06/21 00:08:40;;;;;;;12.77;5.53;;;23.10;73.60;;;;;;5004465;28;20050;-60
2021/06/21 00:11:06;;;;;;;9.20;4.55;;;23.10;73.60;;;;;;5004964;28;20056;-59
2021/06/21 00:13:31;;;;;;;9.18;4.40;;;23.10;73.70;;;;;;5004594;28;20616;-60
2021/06/21 00:15:57;;;;;;;9.15;4.22;;;23.10;73.70;;;;;;5005545;28;20044;-61
2021/06/21 00:18:23;;;;;;;9.85;3.95;;;23.10;73.80;;;;;;5002252;28;20030;-59
2021/06/21 00:20:49;;;;;;;10.20;4.32;;;23.10;73.80;;;;;;5016223;28;20054;-60
2021/06/21 00:23:15;;;;;;;9.45;4.05;;;23.10;73.80;;;;;;5004103;28;20270;-61
2021/06/21 00:25:40;;;;;;;11.25;4.32;;;23.00;73.90;;;;;;5004217;28;20105;-59
2021/06/21 00:28:06;;;;;;;9.48;4.45;;;23.00;73.90;;;;;;5002787;28;20063;-60
2021/06/21 00:30:31;;;;;;;8.45;3.63;;;23.00;74.00;;;;;;5003352;28;20046;-61
2021/06/21 00:32:57;;;;;;;8.27;3.60;;;23.00;74.00;;;;;;5002409;28;20049;-59
2021/06/21 00:35:23;;;;;;;10.27;3.83;;;23.00;74.10;;;;;;5004054;28;20058;-60
2021/06/21 00:37:48;;;;;;;7.80;3.38;;;22.90;74.10;;;;;;5004300;28;20034;-61
2021/06/21 00:40:14;;;;;;;11.15;3.97;;;23.00;74.10;;;;;;4987103;28;20037;-59
2021/06/21 00:42:43;;;;;;;8.15;3.30;;;22.90;74.10;;;;;;5001612;28;20034;-60
2021/06/21 00:45:10;;;;;;;9.88;3.97;;;22.90;74.20;;;;;;4987515;28;20016;-60
2021/06/21 00:47:35;;;;;;;7.53;3.75;;;22.90;74.30;;;;;;5001950;28;20033;-60
2021/06/21 00:50:02;;;;;;;11.77;4.50;;;22.90;74.30;;;;;;5003437;28;20115;-61
2021/06/21 00:52:27;;;;;;;8.98;4.10;;;22.90;74.20;;;;;;5002901;28;20124;-61
2021/06/21 00:55:02;;;;;;;9.05;3.83;;;22.90;74.20;;;;;;5002986;28;20753;-60
2021/06/21 00:57:31;;;;;;;7.68;3.40;;;22.80;74.20;;;;;;4987305;28;20030;-61
2021/06/21 00:59:58;;;;;;;9.48;3.83;;;22.80;74.30;;;;;;4987148;28;20038;-61
2021/06/21 01:02:24;;;;;;;9.80;3.80;;;22.80;74.40;;;;;;5002103;28;20034;-60
2021/06/21 01:04:50;;;;;;;9.63;4.05;;;22.80;74.40;;;;;;5001148;28;20408;-61
2021/06/21 01:07:15;;;;;;;8.88;3.72;;;22.80;74.40;;;;;;5000167;28;20053;-60
2021/06/21 01:09:41;;;;;;;10.68;3.38;;;22.80;74.40;;;;;;5002568;28;20542;-61
2021/06/21 01:12:50;;;;;;;10.30;3.80;;;22.80;74.50;;;;;;4999916;28;20041;-60
2021/06/21 01:15:17;;;;;;;8.65;3.70;;;22.80;74.50;;;;;;5004441;28;20084;-60
2021/06/21 01:17:57;;;;;;;8.75;3.40;;;22.70;74.40;;;;;;5034105;28;20100;-61
2021/06/21 01:20:47;;;;;;;11.60;3.10;;;22.80;74.50;;;;;;5001236;28;20039;-62
2021/06/21 01:23:54;;;;;;;10.90;2.83;;;22.70;74.60;;;;;;5002637;28;20044;-61
2021/06/21 01:26:43;;;;;;;9.80;3.03;;;22.70;74.60;;;;;;5003316;28;20022;-60
2021/06/21 01:29:27;;;;;;;9.98;3.10;;;22.70;74.80;;;;;;5002392;28;20580;-59
2021/06/21 01:32:07;;;;;;;8.30;3.67;;;22.70;74.80;;;;;;5001544;28;20113;-59
2021/06/21 01:34:33;;;;;;;8.50;3.63;;;22.70;74.80;;;;;;5001504;28;20030;-59
2021/06/21 01:37:00;;;;;;;10.68;4.10;;;22.60;74.80;;;;;;4985535;28;20037;-62
2021/06/21 01:39:26;;;;;;;7.82;3.80;;;22.60;74.90;;;;;;5004249;28;20552;-60
2021/06/21 01:41:51;;;;;;;8.50;3.60;;;22.60;74.90;;;;;;4985894;28;20484;-60
2021/06/21 01:44:18;;;;;;;8.70;3.80;;;22.60;75.00;;;;;;5000858;28;20038;-60
2021/06/21 01:46:43;;;;;;;10.38;3.63;;;22.60;75.10;;;;;;5000188;28;20058;-61
2021/06/21 01:49:11;;;;;;;12.00;3.80;;;22.60;75.10;;;;;;4985115;28;20107;-61
2021/06/21 01:51:36;;;;;;;8.18;3.30;;;22.60;75.20;;;;;;5002079;28;20121;-61
2021/06/21 01:54:02;;;;;;;8.35;3.35;;;22.60;75.20;;;;;;4984080;28;20087;-62
2021/06/21 01:56:33;;;;;;;9.75;3.78;;;22.60;75.10;;;;;;5002488;28;20436;-61
2021/06/21 01:59:00;;;;;;;7.20;3.45;;;22.60;75.20;;;;;;4984084;28;20034;-60
2021/06/21 02:01:26;;;;;;;12.75;3.95;;;22.50;75.20;;;;;;4985051;28;20037;-61
2021/06/21 02:03:53;;;;;;;9.15;3.30;;;22.60;75.20;;;;;;5001263;28;20062;-62
2021/06/21 02:06:19;;;;;;;10.48;3.05;;;22.50;75.20;;;;;;4986260;28;20037;-60
2021/06/21 02:08:49;;;;;;;8.50;3.17;;;22.50;75.20;;;;;;5003757;28;20030;-61
2021/06/21 02:11:14;;;;;;;11.05;3.13;;;22.50;75.30;;;;;;4985543;28;20477;-63
2021/06/21 02:13:40;;;;;;;8.98;3.55;;;22.50;75.20;;;;;;4984529;28;20105;-60
2021/06/21 02:16:05;;;;;;;12.23;3.30;;;22.50;75.20;;;;;;5001656;28;20053;-61
2021/06/21 02:18:31;;;;;;;8.02;3.45;;;22.50;75.10;;;;;;5017140;28;20049;-60
2021/06/21 02:20:56;;;;;;;8.73;2.85;;;22.50;75.10;;;;;;4986947;28;20054;-61
2021/06/21 02:23:23;;;;;;;6.60;3.20;;;22.50;75.10;;;;;;4988020;28;20030;-60
2021/06/21 02:25:49;;;;;;;9.77;3.28;;;22.50;75.20;;;;;;4988434;28;20468;-61
2021/06/21 02:28:15;;;;;;;7.38;2.53;;;22.50;75.20;;;;;;5005148;28;20027;-61
2021/06/21 02:30:40;;;;;;;10.23;3.47;;;22.40;75.20;;;;;;4990441;28;20030;-59
2021/06/21 02:33:06;;;;;;;6.68;3.03;;;22.40;75.20;;;;;;5006709;28;20041;-62
2021/06/21 02:35:31;;;;;;;9.10;3.08;;;22.50;75.20;;;;;;5005853;28;20021;-60
2021/06/21 02:37:57;;;;;;;8.18;3.05;;;22.40;75.20;;;;;;5004830;28;20042;-60
2021/06/21 02:40:24;;;;;;;12.02;3.72;;;22.40;75.10;;;;;;5005937;28;20018;-61
2021/06/21 02:42:49;;;;;;;6.78;3.13;;;22.40;75.10;;;;;;5003136;28;20034;-62
2021/06/21 02:45:15;;;;;;;7.80;3.08;;;22.50;75.20;;;;;;5005709;28;20026;-60
2021/06/21 02:47:42;;;;;;;7.55;2.90;;;22.40;75.20;;;;;;4988242;28;20809;-60
2021/06/21 02:50:08;;;;;;;5.35;2.80;;;22.40;75.30;;;;;;4989127;28;20042;-60
2021/06/21 02:52:57;;;;;;;12.55;3.20;;;22.40;75.30;;;;;;5005253;28;20104;-61
2021/06/21 02:55:32;;;;;;;11.55;2.95;;;22.40;75.30;;;;;;5005126;28;20054;-59
2021/06/21 02:58:22;;;;;;;9.15;2.85;;;22.40;75.20;;;;;;5005749;28;20025;-60
2021/06/21 03:00:52;;;;;;;8.52;2.80;;;22.40;75.20;;;;;;4999734;28;20044;-57
2021/06/21 03:03:20;;;;;;;7.68;2.90;;;22.40;75.30;;;;;;4983097;28;20057;-59
2021/06/21 03:05:48;;;;;;;7.53;2.72;;;22.30;75.20;;;;;;4999449;28;20030;-61
2021/06/21 03:08:13;;;;;;;7.32;2.92;;;22.30;75.30;;;;;;4985477;28;20058;-62
2021/06/21 03:10:39;;;;;;;7.28;2.72;;;22.30;75.40;;;;;;5001142;28;20057;-61
2021/06/21 03:13:05;;;;;;;10.00;2.92;;;22.30;75.50;;;;;;4984463;28;20141;-62
2021/06/21 03:15:31;;;;;;;6.13;2.72;;;22.30;75.40;;;;;;4983887;28;20037;-60
2021/06/21 03:17:56;;;;;;;6.07;2.40;;;22.30;75.50;;;;;;5017055;28;20034;-62
2021/06/21 03:20:22;;;;;;;8.57;2.95;;;22.30;75.50;;;;;;4984151;28;20525;-62
2021/06/21 03:22:48;;;;;;;10.05;2.97;;;22.30;75.50;;;;;;4970009;28;20087;-61
2021/06/21 03:25:13;;;;;;;6.20;2.58;;;22.30;75.50;;;;;;5004182;28;20037;-60
2021/06/21 03:27:39;;;;;;;7.90;2.40;;;22.30;75.50;;;;;;4984858;28;20152;-62
2021/06/21 03:30:09;;;;;;;8.77;2.58;;;22.30;75.40;;;;;;5006819;28;20474;-61
2021/06/21 03:32:37;;;;;;;8.35;2.65;;;22.30;75.40;;;;;;5004084;28;20034;-62
2021/06/21 03:35:04;;;;;;;11.50;2.80;;;22.30;75.50;;;;;;5004062;28;20026;-62
2021/06/21 03:37:30;;;;;;;6.03;2.22;;;22.30;75.50;;;;;;4987959;28;20033;-61
2021/06/21 03:39:56;;;;;;;4.45;2.42;;;22.30;75.50;;;;;;5004111;28;20046;-61
2021/06/21 03:42:21;;;;;;;5.28;2.30;;;22.30;75.50;;;;;;4985985;28;20035;-61
2021/06/21 03:44:48;;;;;;;8.77;2.55;;;22.30;75.40;;;;;;5003658;28;20504;-61
2021/06/21 03:47:13;;;;;;;12.98;3.60;;;22.20;75.40;;;;;;5005760;28;20034;-61
2021/06/21 03:49:41;;;;;;;9.40;3.35;;;22.20;75.50;;;;;;5004101;28;20030;-60
2021/06/21 03:52:06;;;;;;;10.15;4.03;;;22.30;75.50;;;;;;5003338;28;20502;-62
2021/06/21 03:54:32;;;;;;;8.35;3.63;;;22.20;75.40;;;;;;5001301;28;20107;-60
2021/06/21 03:56:58;;;;;;;9.30;3.08;;;22.20;75.40;;;;;;5005027;28;20032;-62
2021/06/21 03:59:23;;;;;;;7.65;3.42;;;22.20;75.40;;;;;;5003583;28;20053;-62
2021/06/21 04:01:49;;;;;;;4.90;2.90;;;22.20;75.50;;;;;;5004349;28;20029;-61
2021/06/21 04:04:14;;;;;;;8.23;2.95;;;22.20;75.50;;;;;;5002726;28;20089;-60
2021/06/21 04:06:40;;;;;;;6.13;2.67;;;22.20;75.50;;;;;;5003793;28;20028;-60
2021/06/21 04:09:05;;;;;;;7.95;2.90;;;22.20;75.50;;;;;;5005754;28;20049;-62
2021/06/21 04:11:31;;;;;;;5.65;2.85;;;22.20;75.50;;;;;;5006083;28;20500;-60
2021/06/21 04:13:57;;;;;;;8.70;3.33;;;22.20;75.50;;;;;;5002289;28;20049;-61
2021/06/21 04:16:23;;;;;;;9.23;3.08;;;22.20;75.50;;;;;;5003361;28;20034;-61
2021/06/21 04:18:48;;;;;;;7.15;2.47;;;22.20;75.50;;;;;;5017426;28;20495;-62
2021/06/21 04:21:14;;;;;;;8.23;2.78;;;22.20;75.50;;;;;;5003701;28;20597;-60
2021/06/21 04:23:39;;;;;;;9.48;3.05;;;22.20;75.40;;;;;;5003731;28;20033;-59
2021/06/21 04:26:05;;;;;;;13.10;4.32;;;22.20;75.40;;;;;;5004619;28;20123;-62
2021/06/21 04:28:30;;;;;;;14.18;4.25;;;22.20;75.40;;;;;;5004588;28;20561;-60
2021/06/21 04:30:56;;;;;;;12.93;4.10;;;22.20;75.40;;;;;;5005316;28;20585;-60
2021/06/21 04:33:21;;;;;;;10.95;3.50;;;22.20;75.40;;;;;;5004934;28;20116;-59
2021/06/21 04:35:47;;;;;;;6.50;3.22;;;22.20;75.40;;;;;;5005306;28;20136;-61
2021/06/21 04:38:13;;;;;;;9.65;3.63;;;22.20;75.40;;;;;;5002249;28;20066;-60
2021/06/21 04:40:38;;;;;;;7.28;3.45;;;22.20;75.40;;;;;;5003307;28;20064;-61
2021/06/21 04:43:04;;;;;;;8.02;3.35;;;22.20;75.40;;;;;;5018781;28;20152;-59
2021/06/21 04:45:30;;;;;;;8.02;3.58;;;22.20;75.30;;;;;;4985971;28;20041;-61
2021/06/21 04:47:55;;;;;;;8.88;3.42;;;22.20;75.70;;;;;;5004776;28;20030;-62
2021/06/21 04:50:21;;;;;;;7.05;2.90;;;22.20;75.30;;;;;;5005519;28;20041;-62
2021/06/21 04:52:47;;;;;;;8.38;3.25;;;22.20;75.20;;;;;;5002181;28;20084;-61
2021/06/21 04:55:14;;;;;;;8.65;3.67;;;22.20;75.10;;;;;;5001292;28;20046;-60
2021/06/21 04:57:39;;;;;;;7.68;3.70;;;22.20;75.20;;;;;;5002787;28;20026;-61
2021/06/21 05:00:10;;;;;;;14.35;3.38;;;22.20;75.20;;;;;;5004076;28;20125;-62
2021/06/21 05:02:35;;;;;;;8.48;3.20;;;22.20;75.50;;;;;;5003159;28;20018;-62
2021/06/21 05:05:01;;;;;;;10.05;3.13;;;22.20;75.40;;;;;;5004244;28;20091;-60
2021/06/21 05:07:27;;;;;;;11.23;3.38;;;22.20;75.30;;;;;;5002914;28;20050;-59
2021/06/21 05:09:52;;;;;;;14.95;3.60;;;22.20;75.30;;;;;;5004486;28;20029;-61
2021/06/21 05:12:18;;;;;;;15.70;3.78;;;22.20;75.40;;;;;;5003924;28;20037;-59
2021/06/21 05:14:44;;;;;;;6.22;2.55;;;22.20;75.40;;;;;;5003625;28;20041;-62
2021/06/21 05:17:10;;;;;;;11.93;3.13;;;22.20;75.40;;;;;;5002248;28;20567;-59
2021/06/21 05:19:36;;;;;;;10.68;2.97;;;22.20;75.40;;;;;;5001677;28;20022;-60
2021/06/21 05:22:03;;;;;;;14.00;3.10;;;22.20;75.40;;;;;;5002993;28;20032;-62
2021/06/21 05:24:28;;;;;;;10.00;3.38;;;22.20;75.30;;;;;;5003393;28;20030;-61
2021/06/21 05:26:54;;;;;;;6.30;2.85;;;22.20;75.30;;;;;;5004861;28;20038;-61
2021/06/21 05:29:20;;;;;;;9.25;2.97;;;22.20;75.20;;;;;;5002587;28;20065;-60
2021/06/21 05:31:45;;;;;;;5.82;2.58;;;22.20;75.20;;;;;;4985527;28;20131;-63
2021/06/21 05:34:11;;;;;;;7.38;2.45;;;22.20;75.10;;;;;;5004197;28;20026;-61
2021/06/21 05:36:36;;;;;;;7.53;2.72;;;22.20;75.10;;;;;;5000790;28;20517;-62
2021/06/21 05:39:03;;;;;;;6.90;2.65;;;22.30;75.20;;;;;;5001537;28;20045;-60
2021/06/21 05:41:28;;;;;;;6.32;2.45;;;22.20;75.20;;;;;;5002699;28;20105;-61
2021/06/21 05:43:54;;;;;;;8.02;2.38;;;22.20;75.20;;;;;;5002760;28;20129;-63
2021/06/21 05:46:19;;;;;;;10.27;2.78;;;22.20;75.80;;;;;;4999666;28;20316;-61
2021/06/21 05:48:45;;;;;;;9.05;2.70;;;22.20;75.10;;;;;;5002685;28;20129;-61
2021/06/21 05:51:10;;;;;;;9.07;2.42;;;22.30;75.30;;;;;;5002431;28;20457;-61
2021/06/21 05:53:35;;;;;;;15.52;2.83;;;22.20;75.40;;;;;;5001527;28;20549;-61
2021/06/21 05:56:01;;;;;;;7.40;2.25;;;22.20;75.70;;;;;;5004597;28;20034;-61
2021/06/21 05:58:27;;;;;;;10.77;3.05;;;22.30;75.40;;;;;;5006049;28;20034;-63
2021/06/21 06:00:53;;;;;;;6.45;2.35;;;22.30;75.10;;;;;;5006214;28;20113;-62
2021/06/21 06:03:18;;;;;;;11.45;3.00;;;22.40;75.20;;;;;;5006251;28;20030;-61
2021/06/21 06:05:44;;;;;;;8.35;2.80;;;22.30;75.20;;;;;;5004948;28;20228;-60
2021/06/21 06:08:09;;;;;;;10.38;2.50;;;22.40;75.50;;;;;;5006094;28;20381;-61
2021/06/21 06:10:35;;;;;;;6.68;2.10;;;22.40;75.70;;;;;;5002948;28;20053;-62
2021/06/21 06:13:01;;;;;;;9.63;2.03;;;22.40;75.60;;;;;;5005627;28;20265;-61
2021/06/21 06:15:26;;;;;;;11.20;2.65;;;22.50;75.40;;;;;;5005452;28;20030;-62
2021/06/21 06:17:52;;;;;;;7.82;2.55;;;22.50;75.50;;;;;;5006298;28;20026;-62
2021/06/21 06:20:17;;;;;;;12.07;2.78;;;22.50;75.40;;;;;;5004105;28;20047;-62
2021/06/21 06:22:43;;;;;;;12.00;2.75;;;22.50;75.40;;;;;;5001615;28;20026;-61
2021/06/21 06:25:10;;;;;;;8.88;2.28;;;22.60;75.50;;;;;;4998163;28;20041;-62
2021/06/21 06:27:36;;;;;;;13.55;2.30;;;22.60;75.60;;;;;;5020417;28;20076;-62
2021/06/21 06:30:02;;;;;;;6.18;2.17;;;22.50;75.40;;;;;;5005347;28;20092;-62
2021/06/21 06:32:28;;;;;;;5.57;1.75;;;22.60;75.40;;;;;;5003069;28;20034;-61
2021/06/21 06:34:54;;;;;;;8.18;1.90;;;22.60;75.50;;;;;;5001411;28;20037;-62
2021/06/21 06:37:20;;;;;;;10.13;2.00;;;22.60;75.50;;;;;;4986748;28;20493;-64
2021/06/21 06:39:45;;;;;;;8.57;2.13;;;22.60;75.50;;;;;;5006679;28;20026;-63
2021/06/21 06:42:11;;;;;;;6.57;2.25;;;22.60;75.60;;;;;;5003773;28;20623;-61
2021/06/21 06:44:37;;;;;;;9.60;2.65;;;22.60;75.60;;;;;;5004185;28;20152;-63
2021/06/21 06:47:04;;;;;;;6.35;1.92;;;22.60;75.80;;;;;;5006131;28;20497;-61
2021/06/21 06:49:29;;;;;;;7.07;2.40;;;22.70;75.80;;;;;;5000790;28;20112;-61
2021/06/21 06:51:56;;;;;;;7.03;2.10;;;22.70;75.60;;;;;;5006389;28;20136;-63
2021/06/21 06:54:24;;;;;;;6.43;2.03;;;22.70;75.50;;;;;;5004866;28;20025;-61
2021/06/21 06:56:59;;;;;;;11.38;2.08;;;22.60;75.50;;;;;;5003540;28;20021;-62
2021/06/21 06:59:30;;;;;;;10.85;2.30;;;22.70;75.70;;;;;;4998774;28;20046;-62
2021/06/21 07:01:55;;;;;;;16.92;3.08;;;22.70;75.60;;;;;;5003882;28;21354;-62
2021/06/21 07:04:21;;;;;;;26.95;3.28;;;22.70;75.40;;;;;;5001467;28;20053;-61
2021/06/21 07:06:47;;;;;;;22.38;3.40;;;22.70;75.60;;;;;;5003454;28;20037;-63
2021/06/21 07:09:12;;;;;;;22.13;3.67;;;22.70;75.70;;;;;;5004896;28;20492;-62
2021/06/21 07:11:38;;;;;;;22.77;3.10;;;22.70;75.70;;;;;;5002222;28;20030;-62
2021/06/21 07:14:04;;;;;;;19.08;3.33;;;22.60;75.90;;;;;;5004134;28;20066;-61
2021/06/21 07:16:31;;;;;;;41.35;4.80;;;22.60;75.60;;;;;;5000897;28;20088;-63
2021/06/21 07:18:56;;;;;;;22.67;2.97;;;22.60;75.50;;;;;;4998466;28;20764;-61
2021/06/21 07:21:22;;;;;;;17.48;2.90;;;22.60;75.70;;;;;;5002191;28;20156;-61
2021/06/21 07:23:47;;;;;;;36.58;4.25;;;22.60;75.80;;;;;;5001904;28;20104;-63
2021/06/21 07:26:13;;;;;;;41.85;5.05;;;22.60;75.90;;;;;;5005535;28;20107;-62
2021/06/21 07:28:38;;;;;;;48.08;4.85;;;22.60;76.00;;;;;;4986644;28;20248;-62
2021/06/21 07:31:04;;;;;;;69.35;6.38;;;22.60;76.60;;;;;;4975172;28;20038;-63
2021/06/21 07:33:31;;;;;;;41.63;4.90;;;22.60;76.40;;;;;;4977399;28;20185;-61
2021/06/21 07:35:56;;;;;;;29.90;3.28;;;22.60;76.50;;;;;;4976678;28;20565;-62
2021/06/21 07:38:22;;;;;;;23.40;3.75;;;22.60;76.40;;;;;;4976974;28;20088;-61
2021/06/21 07:40:47;;;;;;;45.08;5.20;;;22.60;76.30;;;;;;5004396;28;20041;-61
2021/06/21 07:43:13;;;;;;;51.38;6.60;;;22.60;76.60;;;;;;4995692;28;20034;-62
2021/06/21 07:45:39;;;;;;;57.47;6.35;;;22.60;76.60;;;;;;5000664;28;20393;-63
2021/06/21 07:48:05;;;;;;;36.10;4.20;;;22.60;76.80;;;;;;4999245;28;20115;-64
2021/06/21 07:50:31;;;;;;;42.53;5.85;;;22.70;76.90;;;;;;5002945;28;20109;-62
2021/06/21 07:52:57;;;;;;;37.60;5.20;;;22.70;76.80;;;;;;5002819;28;20037;-62
2021/06/21 07:55:27;;;;;;;34.67;4.72;;;22.70;76.50;;;;;;4984364;28;20030;-62
2021/06/21 07:57:52;;;;;;;34.15;5.05;;;22.70;76.70;;;;;;4999382;28;20048;-63
2021/06/21 08:00:21;;;;;;;47.55;5.38;;;22.70;76.30;;;;;;5002081;28;20666;-63
2021/06/21 08:02:46;;;;;;;37.72;4.97;;;22.70;76.60;;;;;;4999165;28;20129;-61
2021/06/21 08:05:12;;;;;;;37.17;5.47;;;22.70;76.70;;;;;;5000831;28;20108;-61
2021/06/21 08:07:38;;;;;;;38.80;5.28;;;22.70;76.80;;;;;;5001444;28;20038;-62
2021/06/21 08:10:04;;;;;;;36.50;4.47;;;22.70;77.20;;;;;;4997789;28;20443;-62
2021/06/21 08:12:29;;;;;;;25.20;4.38;;;22.70;77.10;;;;;;5000432;28;20057;-62
2021/06/21 08:14:55;;;;;;;22.35;4.20;;;22.70;77.00;;;;;;4984483;28;20045;-63
2021/06/21 08:17:21;;;;;;;31.70;3.63;;;22.80;76.70;;;;;;5001196;28;20026;-61
2021/06/21 08:19:46;;;;;;;46.72;4.88;;;22.70;76.60;;;;;;4999842;28;20088;-62
2021/06/21 08:22:12;;;;;;;42.85;5.35;;;22.70;76.60;;;;;;4999798;28;20437;-63
2021/06/21 08:24:41;;;;;;;37.20;5.05;;;22.70;76.50;;;;;;4999745;28;20038;-63
2021/06/21 08:27:07;;;;;;;47.33;5.65;;;22.70;76.40;;;;;;5004228;28;20033;-62
2021/06/21 08:29:32;;;;;;;33.83;5.35;;;22.80;76.40;;;;;;5001132;28;20097;-63
2021/06/21 08:31:58;;;;;;;50.75;6.05;;;22.80;76.70;;;;;;5002941;28;20556;-62
2021/06/21 08:34:23;;;;;;;41.85;4.97;;;22.80;76.40;;;;;;5001292;28;20533;-61
2021/06/21 08:36:49;;;;;;;92.57;10.43;;;22.80;75.70;;;;;;5000531;28;20030;-62
2021/06/21 08:39:14;;;;;;;74.78;8.38;;;22.80;75.10;;;;;;5003312;28;20030;-61
2021/06/21 08:41:40;;;;;;;59.00;6.35;;;22.70;74.80;;;;;;5003100;28;20026;-61
2021/06/21 08:44:05;;;;;;;62.30;6.28;;;22.80;74.80;;;;;;5003069;28;20022;-62
2021/06/21 08:46:31;;;;;;;61.55;6.55;;;22.80;75.00;;;;;;5002248;28;20081;-62
2021/06/21 08:48:56;;;;;;;48.88;6.47;;;22.80;75.10;;;;;;4998993;28;20046;-61
2021/06/21 08:51:22;;;;;;;47.55;5.50;;;22.80;75.00;;;;;;4975914;28;20061;-61
2021/06/21 08:53:48;;;;;;;54.03;5.80;;;22.80;74.90;;;;;;4995224;28;20085;-62
2021/06/21 08:56:14;;;;;;;86.45;8.80;;;22.90;75.00;;;;;;5008441;28;20070;-62
2021/06/21 08:58:40;;;;;;;77.90;8.95;;;22.90;74.90;;;;;;4979194;28;20080;-60
2021/06/21 09:01:06;;;;;;;54.35;6.40;;;22.80;74.90;;;;;;4995045;28;20155;-61
2021/06/21 09:03:33;;;;;;;65.05;5.90;;;22.90;74.90;;;;;;4980452;28;20018;-61
2021/06/21 09:05:58;;;;;;;79.72;7.25;;;22.90;74.70;;;;;;4993291;28;20040;-62
2021/06/21 09:08:24;;;;;;;50.30;5.90;;;22.90;74.70;;;;;;4992648;28;20034;-61
2021/06/21 09:10:50;;;;;;;53.45;5.53;;;22.90;74.50;;;;;;4996899;28;20541;-64
2021/06/21 09:13:17;;;;;;;64.28;5.35;;;22.90;74.60;;;;;;4977828;28;20050;-62
2021/06/21 09:15:53;;;;;;;40.55;6.30;;;22.90;74.60;;;;;;4978901;28;20124;-62
2021/06/21 09:18:26;;;;;;;44.42;5.20;;;23.00;74.80;;;;;;4994683;28;20406;-61
2021/06/21 09:21:29;;;;;;;31.25;4.25;;;23.00;74.80;;;;;;4998662;28;20052;-59
2021/06/21 09:23:59;;;;;;;42.72;4.38;;;23.00;74.80;;;;;;4997644;28;20113;-61
2021/06/21 09:26:29;;;;;;;37.83;4.60;;;23.00;74.70;;;;;;4980374;28;20038;-58
2021/06/21 09:28:59;;;;;;;59.20;5.90;;;23.00;74.70;;;;;;4995964;28;20040;-60
2021/06/21 09:31:25;;;;;;;75.40;7.68;;;23.10;74.60;;;;;;4994322;28;20053;-61
2021/06/21 09:33:52;;;;;;;46.50;6.03;;;23.10;74.50;;;;;;4979128;28;20292;-59
2021/06/21 09:36:30;;;;;;;49.83;5.88;;;23.10;74.30;;;;;;4993484;28;20300;-63
2021/06/21 09:39:16;;;;;;;44.70;5.40;;;23.10;74.40;;;;;;5010121;28;20034;-61
2021/06/21 09:41:42;;;;;;;74.68;8.43;;;23.10;74.40;;;;;;4992269;28;20501;-63
2021/06/21 09:44:08;;;;;;;191.07;17.10;;;23.20;74.60;;;;;;4993375;28;20084;-61
2021/06/21 09:46:33;;;;;;;59.20;7.38;;;23.20;74.80;;;;;;4995701;28;20026;-61
2021/06/21 09:48:59;;;;;;;55.97;6.85;;;23.20;74.30;;;;;;4992597;28;20053;-61
2021/06/21 09:51:35;;;;;;;45.95;5.78;;;23.30;74.90;;;;;;4998074;28;20435;-63
2021/06/21 09:54:11;;;;;;;63.03;6.65;;;23.30;74.10;;;;;;4995790;28;20440;-62
2021/06/21 09:56:42;;;;;;;43.70;6.55;;;23.30;73.90;;;;;;4978999;28;20033;-60
2021/06/21 09:59:19;;;;;;;49.25;6.05;;;23.30;73.80;;;;;;4998480;28;20130;-59
2021/06/21 10:01:45;;;;;;;48.90;5.13;;;23.30;74.00;;;;;;4999517;28;20030;-61
2021/06/21 10:04:23;;;;;;;56.30;5.80;;;23.40;73.50;;;;;;4980850;28;20049;-60
2021/06/21 10:06:49;;;;;;;30.73;5.05;;;23.40;73.50;;;;;;4979787;28;20077;-59
2021/06/21 10:09:14;;;;;;;46.72;5.78;;;23.40;73.20;;;;;;4977248;28;21326;-61
2021/06/21 10:11:45;;;;;;;33.28;5.15;;;23.50;73.20;;;;;;4997394;28;20026;-59
2021/06/21 10:14:15;;;;;;;34.33;5.13;;;23.50;73.10;;;;;;4996307;28;20049;-61
2021/06/21 10:16:40;;;;;;;58.15;6.03;;;23.50;72.60;;;;;;4996585;28;20087;-61
2021/06/21 10:19:06;;;;;;;32.13;5.05;;;23.50;72.60;;;;;;4997766;28;20108;-61
2021/06/21 10:21:32;;;;;;;31.38;5.13;;;23.50;72.70;;;;;;4997722;28;20185;-63
2021/06/21 10:23:58;;;;;;;40.65;5.25;;;23.50;72.60;;;;;;4997057;28;20048;-61
2021/06/21 10:26:23;;;;;;;33.03;4.68;;;23.50;72.90;;;;;;4998999;28;20030;-65
2021/06/21 10:28:50;;;;;;;30.23;4.30;;;23.60;72.70;;;;;;4981411;28;20034;-64
2021/06/21 10:31:22;;;;;;;38.97;5.95;;;23.60;72.70;;;;;;4997566;28;20496;-62
2021/06/21 10:33:48;;;;;;;30.83;4.78;;;23.70;72.80;;;;;;4998486;28;20077;-60
2021/06/21 10:36:13;;;;;;;31.88;4.18;;;23.70;72.30;;;;;;4994321;28;20529;-62
2021/06/21 10:38:39;;;;;;;38.83;4.85;;;23.80;71.70;;;;;;4999728;28;20040;-60
2021/06/21 10:41:07;;;;;;;39.45;5.60;;;23.90;71.60;;;;;;4982022;28;20030;-61
2021/06/21 10:43:48;;;;;;;22.15;4.10;;;23.90;71.30;;;;;;4982483;28;20030;-63
2021/06/21 10:46:19;;;;;;;30.38;4.65;;;24.00;71.00;;;;;;5004585;28;20040;-63
2021/06/21 10:49:28;;;;;;;13.73;3.20;;;24.00;70.70;;;;;;5003726;28;20437;-61
2021/06/21 10:51:54;;;;;;;23.73;3.85;;;24.10;70.20;;;;;;4986869;28;20061;-63
2021/06/21 10:54:24;;;;;;;25.95;4.40;;;24.10;70.00;;;;;;5000819;28;20034;-62
2021/06/21 10:56:53;;;;;;;31.45;4.40;;;24.30;70.00;;;;;;5000707;28;20022;-61
2021/06/21 10:59:20;;;;;;;29.00;4.75;;;24.30;70.00;;;;;;4994082;28;20022;-61
2021/06/21 11:01:58;;;;;;;54.05;5.40;;;24.40;69.90;;;;;;5003306;28;20044;-60
2021/06/21 11:04:35;;;;;;;25.92;4.38;;;24.50;69.60;;;;;;5000709;28;20029;-64
2021/06/21 11:07:32;;;;;;;31.17;4.88;;;24.60;69.20;;;;;;5005060;28;20034;-60
2021/06/21 11:09:58;;;;;;;38.90;5.05;;;24.60;68.70;;;;;;4994789;28;20553;-59
2021/06/21 11:12:30;;;;;;;33.35;4.53;;;24.70;68.50;;;;;;5002028;28;20458;-59
2021/06/21 11:17:30;;;;;;;25.58;4.32;;;24.90;68.00;;;;;;4998841;28;20056;-63
2021/06/21 11:19:56;;;;;;;20.35;4.15;;;25.00;67.90;;;;;;5003288;28;20125;-62
2021/06/21 11:22:46;;;;;;;38.78;4.80;;;25.10;67.70;;;;;;5002256;28;20109;-62
2021/06/21 11:25:47;;;;;;;29.90;4.03;;;25.20;67.40;;;;;;5000352;28;20566;-61
2021/06/21 11:28:39;;;;;;;20.40;3.58;;;25.20;66.80;;;;;;4943924;28;20077;-61
2021/06/21 11:31:25;;;;;;;38.13;6.32;;;25.30;66.40;;;;;;4991714;28;20045;-61
2021/06/21 11:34:11;;;;;;;37.30;4.68;;;25.40;66.10;;;;;;5003070;28;20113;-62
2021/06/21 11:36:37;;;;;;;24.50;4.25;;;25.50;65.50;;;;;;5000631;28;20538;-61
2021/06/21 11:39:25;;;;;;;29.30;4.05;;;25.70;65.80;;;;;;5003399;28;20026;-62
2021/06/21 11:41:52;;;;;;;25.90;3.65;;;25.70;65.10;;;;;;5005928;28;20076;-61
2021/06/21 11:44:36;;;;;;;35.85;4.75;;;25.90;64.70;;;;;;5003335;28;20034;-63
2021/06/21 11:47:16;;;;;;;29.05;4.53;;;25.90;64.60;;;;;;5003188;28;20034;-61
2021/06/21 11:49:44;;;;;;;19.35;3.17;;;26.00;64.60;;;;;;4968984;28;20037;-59
2021/06/21 11:52:10;;;;;;;31.52;3.75;;;26.00;64.10;;;;;;5002822;28;20461;-59
2021/06/21 11:54:40;;;;;;;27.73;4.15;;;26.10;64.00;;;;;;5004248;28;20037;-59
2021/06/21 11:57:06;;;;;;;24.45;3.50;;;26.10;63.30;;;;;;5003078;28;20072;-61
2021/06/21 11:59:36;;;;;;;17.15;3.13;;;26.20;63.10;;;;;;5000328;28;20115;-59
2021/06/21 12:02:07;;;;;;;22.83;3.70;;;26.20;63.00;;;;;;4997772;28;20081;-60
2021/06/21 12:04:32;;;;;;;25.48;3.78;;;26.30;62.70;;;;;;5000102;28;20041;-60
2021/06/21 12:06:58;;;;;;;24.52;3.65;;;26.40;61.50;;;;;;5000265;28;20381;-59
2021/06/21 12:09:23;;;;;;;22.13;2.97;;;26.50;61.40;;;;;;5002510;28;20490;-60
2021/06/21 12:11:52;;;;;;;20.02;3.28;;;26.50;61.80;;;;;;5003357;28;20057;-60
2021/06/21 12:14:23;;;;;;;14.98;3.50;;;26.60;61.00;;;;;;5001562;28;20029;-60
2021/06/21 12:16:48;;;;;;;16.65;3.08;;;26.70;60.40;;;;;;4999899;28;20666;-61
2021/06/21 12:19:14;;;;;;;24.20;3.45;;;26.70;60.30;;;;;;5001108;28;20080;-61
2021/06/21 12:21:44;;;;;;;32.33;4.95;;;26.80;60.40;;;;;;5003184;28;20061;-62
2021/06/21 12:24:17;;;;;;;26.60;3.90;;;26.80;59.50;;;;;;5001012;28;20057;-62
2021/06/21 12:26:43;;;;;;;28.00;3.88;;;26.90;59.30;;;;;;5011618;28;20028;-61
2021/06/21 12:29:29;;;;;;;20.73;3.58;;;26.90;58.90;;;;;;4998237;28;20050;-61
2021/06/21 12:31:59;;;;;;;24.48;3.38;;;27.00;58.90;;;;;;4996763;28;20026;-60
2021/06/21 12:34:44;;;;;;;23.90;4.15;;;27.00;59.00;;;;;;5001180;28;20117;-60
2021/06/21 12:37:16;;;;;;;29.50;4.50;;;27.00;59.10;;;;;;5001128;28;20061;-62
2021/06/21 12:39:43;;;;;;;33.50;4.43;;;27.10;58.90;;;;;;4992936;28;20120;-59
2021/06/21 12:42:10;;;;;;;25.70;3.38;;;27.30;58.60;;;;;;5001289;28;20092;-60
2021/06/21 12:44:35;;;;;;;20.33;3.70;;;27.30;58.70;;;;;;4993701;28;20038;-59
2021/06/21 12:47:01;;;;;;;29.13;3.42;;;27.40;58.00;;;;;;4997546;28;20029;-62
2021/06/21 12:49:26;;;;;;;18.45;2.90;;;27.40;58.00;;;;;;4979092;28;20034;-60